sensor_id;sensor_type;location;lat;lon;timestamp;P1;durP1;ratioP1;P2;durP2;ratioP2
3343;SDS011;1685;53.104;8.228;2023-02-04T00:01:29;5.47;;;1.30;;
3343;SDS011;1685;53.104;8.228;2023-02-04T00:03:56;14.70;;;2.43;;
3343;SDS011;1685;53.104;8.228;2023-02-04T00:06:23;9.97;;;1.80;;
3343;SDS011;1685;53.104;8.228;2023-02-04T00:08:50;14.50;;;2.00;;
3343;SDS011;1685;53.104;8.228;2023-02-04T00:11:17;7.03;;;2.07;;
3343;SDS011;1685;53.104;8.228;2023-02-04T00:13:45;5.90;;;1.90;;
3343;SDS011;1685;53.104;8.228;2023-02-04T00:16:11;12.90;;;2.57;;
3343;SDS011;1685;53.104;8.228;2023-02-04T00:18:38;9.87;;;1.67;;
3343;SDS011;1685;53.104;8.228;2023-02-04T00:21:05;7.03;;;1.70;;
3343;SDS011;1685;53.104;8.228;2023-02-04T00:23:32;11.77;;;2.00;;
3343;SDS011;1685;53.104;8.228;2023-02-04T00:25:58;14.50;;;2.67;;
3343;SDS011;1685;53.104;8.228;2023-02-04T00:28:25;8.80;;;2.77;;
3343;SDS011;1685;53.104;8.228;2023-02-04T00:30:54;12.77;;;2.37;;
3343;SDS011;1685;53.104;8.228;2023-02-04T00:33:20;15.33;;;1.93;;
3343;SDS011;1685;53.104;8.228;2023-02-04T00:35:47;2.60;;;1.60;;
3343;SDS011;1685;53.104;8.228;2023-02-04T00:38:14;6.43;;;1.43;;
3343;SDS011;1685;53.104;8.228;2023-02-04T00:40:41;3.83;;;1.43;;
3343;SDS011;1685;53.104;8.228;2023-02-04T00:43:08;8.10;;;1.57;;
3343;SDS011;1685;53.104;8.228;2023-02-04T00:45:34;11.93;;;1.87;;
3343;SDS011;1685;53.104;8.228;2023-02-04T00:48:02;5.77;;;1.83;;
3343;SDS011;1685;53.104;8.228;2023-02-04T00:50:29;4.50;;;1.50;;
3343;SDS011;1685;53.104;8.228;2023-02-04T00:52:56;13.97;;;2.20;;
3343;SDS011;1685;53.104;8.228;2023-02-04T00:55:25;9.80;;;2.43;;
3343;SDS011;1685;53.104;8.228;2023-02-04T00:57:52;7.93;;;1.57;;
3343;SDS011;1685;53.104;8.228;2023-02-04T01:00:19;7.70;;;2.10;;
3343;SDS011;1685;53.104;8.228;2023-02-04T01:02:46;11.83;;;2.57;;
3343;SDS011;1685;53.104;8.228;2023-02-04T01:05:14;7.50;;;2.00;;
3343;SDS011;1685;53.104;8.228;2023-02-04T01:07:41;2.57;;;1.27;;
3343;SDS011;1685;53.104;8.228;2023-02-04T01:10:08;12.53;;;2.20;;
3343;SDS011;1685;53.104;8.228;2023-02-04T01:12:35;11.07;;;2.30;;
3343;SDS011;1685;53.104;8.228;2023-02-04T01:15:02;10.73;;;2.33;;
3343;SDS011;1685;53.104;8.228;2023-02-04T01:17:29;7.40;;;2.27;;
3343;SDS011;1685;53.104;8.228;2023-02-04T01:19:56;12.23;;;2.20;;
3343;SDS011;1685;53.104;8.228;2023-02-04T01:22:24;10.83;;;2.03;;
3343;SDS011;1685;53.104;8.228;2023-02-04T01:24:51;3.43;;;1.60;;
3343;SDS011;1685;53.104;8.228;2023-02-04T01:27:18;10.73;;;1.77;;
3343;SDS011;1685;53.104;8.228;2023-02-04T01:29:44;5.37;;;1.50;;
3343;SDS011;1685;53.104;8.228;2023-02-04T01:32:11;4.63;;;1.93;;
3343;SDS011;1685;53.104;8.228;2023-02-04T01:34:38;5.30;;;1.50;;
3343;SDS011;1685;53.104;8.228;2023-02-04T01:37:05;4.20;;;2.17;;
3343;SDS011;1685;53.104;8.228;2023-02-04T01:39:33;9.60;;;1.80;;
3343;SDS011;1685;53.104;8.228;2023-02-04T01:42:00;4.63;;;2.10;;
3343;SDS011;1685;53.104;8.228;2023-02-04T01:44:28;4.30;;;1.90;;
3343;SDS011;1685;53.104;8.228;2023-02-04T01:46:55;6.37;;;1.90;;
3343;SDS011;1685;53.104;8.228;2023-02-04T01:49:22;7.43;;;2.33;;
3343;SDS011;1685;53.104;8.228;2023-02-04T01:51:49;5.73;;;2.00;;
3343;SDS011;1685;53.104;8.228;2023-02-04T01:54:15;11.00;;;2.37;;
3343;SDS011;1685;53.104;8.228;2023-02-04T01:56:46;16.90;;;2.30;;
3343;SDS011;1685;53.104;8.228;2023-02-04T01:59:15;10.47;;;1.77;;
3343;SDS011;1685;53.104;8.228;2023-02-04T02:01:44;7.20;;;1.37;;
3343;SDS011;1685;53.104;8.228;2023-02-04T02:04:13;4.20;;;2.60;;
3343;SDS011;1685;53.104;8.228;2023-02-04T02:06:41;3.63;;;1.60;;
3343;SDS011;1685;53.104;8.228;2023-02-04T02:09:12;13.87;;;1.53;;
3343;SDS011;1685;53.104;8.228;2023-02-04T02:11:39;5.60;;;1.60;;
3343;SDS011;1685;53.104;8.228;2023-02-04T02:14:07;4.53;;;1.93;;
3343;SDS011;1685;53.104;8.228;2023-02-04T02:16:34;6.67;;;1.30;;
3343;SDS011;1685;53.104;8.228;2023-02-04T02:19:01;6.50;;;1.70;;
3343;SDS011;1685;53.104;8.228;2023-02-04T02:21:30;5.27;;;1.47;;
3343;SDS011;1685;53.104;8.228;2023-02-04T02:24:04;3.70;;;1.80;;
3343;SDS011;1685;53.104;8.228;2023-02-04T02:26:51;5.67;;;1.73;;
3343;SDS011;1685;53.104;8.228;2023-02-04T02:29:18;2.03;;;1.73;;
3343;SDS011;1685;53.104;8.228;2023-02-04T02:31:45;5.03;;;2.47;;
3343;SDS011;1685;53.104;8.228;2023-02-04T02:34:12;7.23;;;1.63;;
3343;SDS011;1685;53.104;8.228;2023-02-04T02:36:39;5.27;;;2.30;;
3343;SDS011;1685;53.104;8.228;2023-02-04T02:39:07;5.27;;;1.73;;
3343;SDS011;1685;53.104;8.228;2023-02-04T02:41:34;6.80;;;1.90;;
3343;SDS011;1685;53.104;8.228;2023-02-04T02:44:01;8.83;;;2.37;;
3343;SDS011;1685;53.104;8.228;2023-02-04T02:46:28;4.17;;;1.43;;
3343;SDS011;1685;53.104;8.228;2023-02-04T02:48:55;9.97;;;1.90;;
3343;SDS011;1685;53.104;8.228;2023-02-04T02:51:22;8.50;;;2.00;;
3343;SDS011;1685;53.104;8.228;2023-02-04T02:53:48;3.93;;;1.70;;
3343;SDS011;1685;53.104;8.228;2023-02-04T02:56:20;1.67;;;1.33;;
3343;SDS011;1685;53.104;8.228;2023-02-04T02:58:47;8.47;;;2.37;;
3343;SDS011;1685;53.104;8.228;2023-02-04T03:01:14;7.93;;;3.00;;
3343;SDS011;1685;53.104;8.228;2023-02-04T03:03:41;10.53;;;1.90;;
3343;SDS011;1685;53.104;8.228;2023-02-04T03:06:14;12.30;;;2.40;;
3343;SDS011;1685;53.104;8.228;2023-02-04T03:08:44;6.27;;;1.30;;
3343;SDS011;1685;53.104;8.228;2023-02-04T03:11:13;4.47;;;2.00;;
3343;SDS011;1685;53.104;8.228;2023-02-04T03:13:41;3.30;;;1.20;;
3343;SDS011;1685;53.104;8.228;2023-02-04T03:16:08;5.20;;;1.83;;
3343;SDS011;1685;53.104;8.228;2023-02-04T03:18:35;8.00;;;1.70;;
3343;SDS011;1685;53.104;8.228;2023-02-04T03:21:03;9.10;;;2.20;;
3343;SDS011;1685;53.104;8.228;2023-02-04T03:23:32;6.93;;;1.53;;
3343;SDS011;1685;53.104;8.228;2023-02-04T03:26:00;5.37;;;2.23;;
3343;SDS011;1685;53.104;8.228;2023-02-04T03:28:27;7.10;;;1.40;;
3343;SDS011;1685;53.104;8.228;2023-02-04T03:30:55;3.80;;;1.67;;
3343;SDS011;1685;53.104;8.228;2023-02-04T03:33:22;6.70;;;1.80;;
3343;SDS011;1685;53.104;8.228;2023-02-04T03:35:50;6.03;;;1.90;;
3343;SDS011;1685;53.104;8.228;2023-02-04T03:38:17;5.43;;;1.53;;
3343;SDS011;1685;53.104;8.228;2023-02-04T03:40:44;6.00;;;2.33;;
3343;SDS011;1685;53.104;8.228;2023-02-04T03:43:11;3.13;;;1.73;;
3343;SDS011;1685;53.104;8.228;2023-02-04T03:45:38;4.43;;;1.73;;
3343;SDS011;1685;53.104;8.228;2023-02-04T03:48:06;7.43;;;1.93;;
3343;SDS011;1685;53.104;8.228;2023-02-04T03:50:33;9.50;;;1.57;;
3343;SDS011;1685;53.104;8.228;2023-02-04T03:52:59;8.50;;;2.40;;
3343;SDS011;1685;53.104;8.228;2023-02-04T03:55:26;3.97;;;1.60;;
3343;SDS011;1685;53.104;8.228;2023-02-04T03:57:53;5.20;;;2.20;;
3343;SDS011;1685;53.104;8.228;2023-02-04T04:00:19;7.53;;;2.93;;
3343;SDS011;1685;53.104;8.228;2023-02-04T04:02:46;8.73;;;3.33;;
3343;SDS011;1685;53.104;8.228;2023-02-04T04:05:14;7.07;;;3.00;;
3343;SDS011;1685;53.104;8.228;2023-02-04T04:07:41;7.23;;;3.23;;
3343;SDS011;1685;53.104;8.228;2023-02-04T04:10:10;11.73;;;4.03;;
3343;SDS011;1685;53.104;8.228;2023-02-04T04:12:37;8.03;;;2.40;;
3343;SDS011;1685;53.104;8.228;2023-02-04T04:15:03;9.77;;;3.50;;
3343;SDS011;1685;53.104;8.228;2023-02-04T04:17:30;7.60;;;3.00;;
3343;SDS011;1685;53.104;8.228;2023-02-04T04:19:57;7.47;;;3.03;;
3343;SDS011;1685;53.104;8.228;2023-02-04T04:22:25;3.20;;;2.07;;
3343;SDS011;1685;53.104;8.228;2023-02-04T04:24:52;8.17;;;2.50;;
3343;SDS011;1685;53.104;8.228;2023-02-04T04:27:18;4.37;;;1.90;;
3343;SDS011;1685;53.104;8.228;2023-02-04T04:29:45;5.27;;;1.80;;
3343;SDS011;1685;53.104;8.228;2023-02-04T04:32:12;3.43;;;1.80;;
3343;SDS011;1685;53.104;8.228;2023-02-04T04:34:39;5.03;;;2.30;;
3343;SDS011;1685;53.104;8.228;2023-02-04T04:37:05;2.67;;;2.00;;
3343;SDS011;1685;53.104;8.228;2023-02-04T04:39:34;5.93;;;1.93;;
3343;SDS011;1685;53.104;8.228;2023-02-04T04:42:00;5.33;;;1.90;;
3343;SDS011;1685;53.104;8.228;2023-02-04T04:44:27;5.87;;;1.80;;
3343;SDS011;1685;53.104;8.228;2023-02-04T04:46:54;8.30;;;2.37;;
3343;SDS011;1685;53.104;8.228;2023-02-04T04:49:20;2.70;;;1.50;;
3343;SDS011;1685;53.104;8.228;2023-02-04T04:51:47;8.13;;;1.17;;
3343;SDS011;1685;53.104;8.228;2023-02-04T04:54:14;7.07;;;2.10;;
3343;SDS011;1685;53.104;8.228;2023-02-04T04:56:42;2.20;;;1.57;;
3343;SDS011;1685;53.104;8.228;2023-02-04T04:59:08;5.17;;;1.80;;
3343;SDS011;1685;53.104;8.228;2023-02-04T05:01:35;5.70;;;1.60;;
3343;SDS011;1685;53.104;8.228;2023-02-04T05:04:02;4.07;;;2.30;;
3343;SDS011;1685;53.104;8.228;2023-02-04T05:06:28;11.73;;;2.30;;
3343;SDS011;1685;53.104;8.228;2023-02-04T05:08:55;3.33;;;1.40;;
3343;SDS011;1685;53.104;8.228;2023-02-04T05:11:22;5.97;;;1.60;;
3343;SDS011;1685;53.104;8.228;2023-02-04T05:13:50;6.57;;;1.80;;
3343;SDS011;1685;53.104;8.228;2023-02-04T05:16:16;12.67;;;2.10;;
3343;SDS011;1685;53.104;8.228;2023-02-04T05:18:43;5.83;;;2.23;;
3343;SDS011;1685;53.104;8.228;2023-02-04T05:21:10;4.40;;;1.60;;
3343;SDS011;1685;53.104;8.228;2023-02-04T05:23:37;8.43;;;2.00;;
3343;SDS011;1685;53.104;8.228;2023-02-04T05:26:04;10.83;;;2.90;;
3343;SDS011;1685;53.104;8.228;2023-02-04T05:28:30;9.53;;;3.17;;
3343;SDS011;1685;53.104;8.228;2023-02-04T05:30:59;8.90;;;3.03;;
3343;SDS011;1685;53.104;8.228;2023-02-04T05:33:25;3.87;;;2.70;;
3343;SDS011;1685;53.104;8.228;2023-02-04T05:35:52;13.43;;;3.30;;
3343;SDS011;1685;53.104;8.228;2023-02-04T05:38:19;8.80;;;3.47;;
3343;SDS011;1685;53.104;8.228;2023-02-04T05:40:46;11.07;;;2.63;;
3343;SDS011;1685;53.104;8.228;2023-02-04T05:43:13;5.20;;;2.77;;
3343;SDS011;1685;53.104;8.228;2023-02-04T05:45:40;2.23;;;2.07;;
3343;SDS011;1685;53.104;8.228;2023-02-04T05:48:08;3.70;;;2.20;;
3343;SDS011;1685;53.104;8.228;2023-02-04T05:50:34;1.70;;;1.60;;
3343;SDS011;1685;53.104;8.228;2023-02-04T05:53:01;7.67;;;2.63;;
3343;SDS011;1685;53.104;8.228;2023-02-04T05:55:28;3.83;;;2.00;;
3343;SDS011;1685;53.104;8.228;2023-02-04T05:57:54;4.07;;;2.30;;
3343;SDS011;1685;53.104;8.228;2023-02-04T06:00:21;4.33;;;3.63;;
3343;SDS011;1685;53.104;8.228;2023-02-04T06:02:48;7.20;;;4.90;;
3343;SDS011;1685;53.104;8.228;2023-02-04T06:05:16;7.03;;;4.00;;
3343;SDS011;1685;53.104;8.228;2023-02-04T06:07:43;7.23;;;3.17;;
3343;SDS011;1685;53.104;8.228;2023-02-04T06:10:10;11.60;;;3.67;;
3343;SDS011;1685;53.104;8.228;2023-02-04T06:12:37;6.97;;;2.50;;
3343;SDS011;1685;53.104;8.228;2023-02-04T06:15:05;15.40;;;2.80;;
3343;SDS011;1685;53.104;8.228;2023-02-04T06:17:32;3.40;;;2.20;;
3343;SDS011;1685;53.104;8.228;2023-02-04T06:19:59;6.40;;;2.30;;
3343;SDS011;1685;53.104;8.228;2023-02-04T06:22:27;7.13;;;2.57;;
3343;SDS011;1685;53.104;8.228;2023-02-04T06:24:53;5.50;;;2.37;;
3343;SDS011;1685;53.104;8.228;2023-02-04T06:27:20;18.53;;;3.03;;
3343;SDS011;1685;53.104;8.228;2023-02-04T06:29:48;6.00;;;2.03;;
3343;SDS011;1685;53.104;8.228;2023-02-04T06:32:15;4.73;;;2.10;;
3343;SDS011;1685;53.104;8.228;2023-02-04T06:34:41;5.93;;;2.27;;
3343;SDS011;1685;53.104;8.228;2023-02-04T06:37:08;5.37;;;2.20;;
3343;SDS011;1685;53.104;8.228;2023-02-04T06:39:37;4.40;;;2.10;;
3343;SDS011;1685;53.104;8.228;2023-02-04T06:42:04;3.87;;;2.20;;
3343;SDS011;1685;53.104;8.228;2023-02-04T06:44:31;2.40;;;2.00;;
3343;SDS011;1685;53.104;8.228;2023-02-04T06:46:57;5.57;;;2.30;;
3343;SDS011;1685;53.104;8.228;2023-02-04T06:49:24;2.27;;;2.07;;
3343;SDS011;1685;53.104;8.228;2023-02-04T06:51:51;3.23;;;2.33;;
3343;SDS011;1685;53.104;8.228;2023-02-04T06:54:19;3.63;;;2.10;;
3343;SDS011;1685;53.104;8.228;2023-02-04T06:56:48;3.80;;;2.40;;
3343;SDS011;1685;53.104;8.228;2023-02-04T06:59:14;4.43;;;1.90;;
3343;SDS011;1685;53.104;8.228;2023-02-04T07:01:41;2.20;;;2.00;;
3343;SDS011;1685;53.104;8.228;2023-02-04T07:04:08;5.77;;;2.20;;
3343;SDS011;1685;53.104;8.228;2023-02-04T07:06:34;4.20;;;2.50;;
3343;SDS011;1685;53.104;8.228;2023-02-04T07:09:01;2.60;;;2.40;;
3343;SDS011;1685;53.104;8.228;2023-02-04T07:11:28;2.83;;;2.67;;
3343;SDS011;1685;53.104;8.228;2023-02-04T07:13:56;6.20;;;2.67;;
3343;SDS011;1685;53.104;8.228;2023-02-04T07:16:23;5.73;;;2.60;;
3343;SDS011;1685;53.104;8.228;2023-02-04T07:18:49;5.53;;;2.80;;
3343;SDS011;1685;53.104;8.228;2023-02-04T07:21:16;6.23;;;3.23;;
3343;SDS011;1685;53.104;8.228;2023-02-04T07:23:43;2.50;;;2.37;;
3343;SDS011;1685;53.104;8.228;2023-02-04T07:26:09;5.60;;;2.67;;
3343;SDS011;1685;53.104;8.228;2023-02-04T07:28:36;5.63;;;2.50;;
3343;SDS011;1685;53.104;8.228;2023-02-04T07:31:06;4.30;;;3.20;;
3343;SDS011;1685;53.104;8.228;2023-02-04T07:33:33;5.80;;;2.40;;
3343;SDS011;1685;53.104;8.228;2023-02-04T07:35:59;2.90;;;2.70;;
3343;SDS011;1685;53.104;8.228;2023-02-04T07:38:26;6.40;;;2.70;;
3343;SDS011;1685;53.104;8.228;2023-02-04T07:40:53;4.93;;;2.90;;
3343;SDS011;1685;53.104;8.228;2023-02-04T07:43:19;2.70;;;2.60;;
3343;SDS011;1685;53.104;8.228;2023-02-04T07:45:46;6.40;;;2.87;;
3343;SDS011;1685;53.104;8.228;2023-02-04T07:48:14;7.30;;;2.87;;
3343;SDS011;1685;53.104;8.228;2023-02-04T07:50:41;6.77;;;2.90;;
3343;SDS011;1685;53.104;8.228;2023-02-04T07:53:08;3.80;;;2.70;;
3343;SDS011;1685;53.104;8.228;2023-02-04T07:55:34;2.80;;;2.60;;
3343;SDS011;1685;53.104;8.228;2023-02-04T07:58:01;3.97;;;2.80;;
3343;SDS011;1685;53.104;8.228;2023-02-04T08:00:28;5.37;;;3.93;;
3343;SDS011;1685;53.104;8.228;2023-02-04T08:02:55;7.43;;;5.33;;
3343;SDS011;1685;53.104;8.228;2023-02-04T08:05:23;5.33;;;4.77;;
3343;SDS011;1685;53.104;8.228;2023-02-04T08:07:50;5.40;;;3.70;;
3343;SDS011;1685;53.104;8.228;2023-02-04T08:10:17;6.30;;;3.87;;
3343;SDS011;1685;53.104;8.228;2023-02-04T08:12:45;3.40;;;3.10;;
3343;SDS011;1685;53.104;8.228;2023-02-04T08:15:12;4.27;;;3.87;;
3343;SDS011;1685;53.104;8.228;2023-02-04T08:17:39;3.63;;;3.20;;
3343;SDS011;1685;53.104;8.228;2023-02-04T08:20:06;8.10;;;3.70;;
3343;SDS011;1685;53.104;8.228;2023-02-04T08:22:35;6.03;;;3.53;;
3343;SDS011;1685;53.104;8.228;2023-02-04T08:25:01;5.53;;;3.80;;
3343;SDS011;1685;53.104;8.228;2023-02-04T08:27:29;3.87;;;3.57;;
3343;SDS011;1685;53.104;8.228;2023-02-04T08:29:55;12.13;;;4.10;;
3343;SDS011;1685;53.104;8.228;2023-02-04T08:32:22;3.83;;;3.47;;
3343;SDS011;1685;53.104;8.228;2023-02-04T08:34:50;4.10;;;3.80;;
3343;SDS011;1685;53.104;8.228;2023-02-04T08:37:17;7.93;;;4.30;;
3343;SDS011;1685;53.104;8.228;2023-02-04T08:39:45;5.10;;;3.50;;
3343;SDS011;1685;53.104;8.228;2023-02-04T08:42:13;8.87;;;3.67;;
3343;SDS011;1685;53.104;8.228;2023-02-04T08:44:39;6.40;;;4.40;;
3343;SDS011;1685;53.104;8.228;2023-02-04T08:47:07;6.15;;;4.35;;
3343;SDS011;1685;53.104;8.228;2023-02-04T08:49:34;6.17;;;3.87;;
3343;SDS011;1685;53.104;8.228;2023-02-04T08:52:00;8.63;;;4.30;;
3343;SDS011;1685;53.104;8.228;2023-02-04T08:54:28;7.83;;;5.07;;
3343;SDS011;1685;53.104;8.228;2023-02-04T08:56:56;5.27;;;4.40;;
3343;SDS011;1685;53.104;8.228;2023-02-04T08:59:23;4.97;;;4.47;;
3343;SDS011;1685;53.104;8.228;2023-02-04T09:01:50;4.63;;;4.20;;
3343;SDS011;1685;53.104;8.228;2023-02-04T09:04:17;8.83;;;4.80;;
3343;SDS011;1685;53.104;8.228;2023-02-04T09:06:45;4.67;;;4.27;;
3343;SDS011;1685;53.104;8.228;2023-02-04T09:09:12;5.20;;;4.40;;
3343;SDS011;1685;53.104;8.228;2023-02-04T09:11:39;5.75;;;5.07;;
3343;SDS011;1685;53.104;8.228;2023-02-04T09:14:08;5.30;;;4.33;;
3343;SDS011;1685;53.104;8.228;2023-02-04T09:16:34;7.17;;;4.23;;
3343;SDS011;1685;53.104;8.228;2023-02-04T09:19:01;7.50;;;4.37;;
3343;SDS011;1685;53.104;8.228;2023-02-04T09:21:28;4.37;;;3.67;;
3343;SDS011;1685;53.104;8.228;2023-02-04T09:23:55;5.10;;;3.90;;
3343;SDS011;1685;53.104;8.228;2023-02-04T09:26:22;4.47;;;4.07;;
3343;SDS011;1685;53.104;8.228;2023-02-04T09:28:49;5.10;;;4.13;;
3343;SDS011;1685;53.104;8.228;2023-02-04T09:31:17;7.27;;;4.50;;
3343;SDS011;1685;53.104;8.228;2023-02-04T09:33:44;5.97;;;4.40;;
3343;SDS011;1685;53.104;8.228;2023-02-04T09:36:10;6.73;;;4.27;;
3343;SDS011;1685;53.104;8.228;2023-02-04T09:38:37;4.47;;;4.13;;
3343;SDS011;1685;53.104;8.228;2023-02-04T09:41:05;5.10;;;4.60;;
3343;SDS011;1685;53.104;8.228;2023-02-04T09:43:33;5.03;;;4.07;;
3343;SDS011;1685;53.104;8.228;2023-02-04T09:46:02;6.07;;;4.30;;
3343;SDS011;1685;53.104;8.228;2023-02-04T09:48:30;7.40;;;4.13;;
3343;SDS011;1685;53.104;8.228;2023-02-04T09:51:01;6.03;;;4.00;;
3343;SDS011;1685;53.104;8.228;2023-02-04T09:53:29;8.03;;;4.00;;
3343;SDS011;1685;53.104;8.228;2023-02-04T09:55:57;4.80;;;4.30;;
3343;SDS011;1685;53.104;8.228;2023-02-04T09:58:24;4.57;;;4.17;;
3343;SDS011;1685;53.104;8.228;2023-02-04T10:00:55;6.30;;;3.97;;
3343;SDS011;1685;53.104;8.228;2023-02-04T10:03:25;4.67;;;4.27;;
3343;SDS011;1685;53.104;8.228;2023-02-04T10:05:53;6.27;;;4.33;;
3343;SDS011;1685;53.104;8.228;2023-02-04T10:08:22;4.20;;;3.80;;
3343;SDS011;1685;53.104;8.228;2023-02-04T10:10:53;4.00;;;3.60;;
3343;SDS011;1685;53.104;8.228;2023-02-04T10:13:20;4.20;;;3.80;;
3343;SDS011;1685;53.104;8.228;2023-02-04T10:15:53;3.40;;;3.10;;
3343;SDS011;1685;53.104;8.228;2023-02-04T10:18:22;3.77;;;3.47;;
3343;SDS011;1685;53.104;8.228;2023-02-04T10:20:54;3.80;;;3.33;;
3343;SDS011;1685;53.104;8.228;2023-02-04T10:23:22;3.40;;;3.20;;
3343;SDS011;1685;53.104;8.228;2023-02-04T10:25:49;2.80;;;2.53;;
3343;SDS011;1685;53.104;8.228;2023-02-04T10:28:16;9.33;;;3.23;;
3343;SDS011;1685;53.104;8.228;2023-02-04T10:30:43;3.80;;;2.97;;
3343;SDS011;1685;53.104;8.228;2023-02-04T10:33:11;3.40;;;3.20;;
3343;SDS011;1685;53.104;8.228;2023-02-04T10:35:43;3.60;;;3.30;;
3343;SDS011;1685;53.104;8.228;2023-02-04T10:38:12;4.77;;;2.80;;
3343;SDS011;1685;53.104;8.228;2023-02-04T10:40:39;5.47;;;2.43;;
3343;SDS011;1685;53.104;8.228;2023-02-04T10:43:07;3.33;;;3.03;;
3343;SDS011;1685;53.104;8.228;2023-02-04T10:45:35;2.47;;;2.33;;
3343;SDS011;1685;53.104;8.228;2023-02-04T10:48:03;3.10;;;2.80;;
3343;SDS011;1685;53.104;8.228;2023-02-04T10:50:31;2.77;;;2.60;;
3343;SDS011;1685;53.104;8.228;2023-02-04T10:52:58;3.17;;;2.97;;
3343;SDS011;1685;53.104;8.228;2023-02-04T10:55:41;2.53;;;2.33;;
3343;SDS011;1685;53.104;8.228;2023-02-04T10:58:09;3.33;;;2.50;;
3343;SDS011;1685;53.104;8.228;2023-02-04T11:00:38;3.43;;;2.50;;
3343;SDS011;1685;53.104;8.228;2023-02-04T11:03:06;3.17;;;2.97;;
3343;SDS011;1685;53.104;8.228;2023-02-04T11:05:37;3.37;;;2.70;;
3343;SDS011;1685;53.104;8.228;2023-02-04T11:08:15;5.87;;;3.10;;
3343;SDS011;1685;53.104;8.228;2023-02-04T11:10:48;2.57;;;2.37;;
3343;SDS011;1685;53.104;8.228;2023-02-04T11:13:20;3.13;;;3.00;;
3343;SDS011;1685;53.104;8.228;2023-02-04T11:15:49;2.80;;;2.53;;
3343;SDS011;1685;53.104;8.228;2023-02-04T11:18:27;3.47;;;3.17;;
3343;SDS011;1685;53.104;8.228;2023-02-04T11:20:58;3.60;;;3.30;;
3343;SDS011;1685;53.104;8.228;2023-02-04T11:23:29;3.97;;;2.50;;
3343;SDS011;1685;53.104;8.228;2023-02-04T11:26:04;3.30;;;3.10;;
3343;SDS011;1685;53.104;8.228;2023-02-04T11:28:47;4.70;;;2.80;;
3343;SDS011;1685;53.104;8.228;2023-02-04T11:31:26;3.53;;;3.17;;
3343;SDS011;1685;53.104;8.228;2023-02-04T11:34:05;2.77;;;2.50;;
3343;SDS011;1685;53.104;8.228;2023-02-04T11:36:49;3.07;;;2.87;;
3343;SDS011;1685;53.104;8.228;2023-02-04T11:39:20;2.80;;;2.60;;
3343;SDS011;1685;53.104;8.228;2023-02-04T11:41:48;3.13;;;2.93;;
3343;SDS011;1685;53.104;8.228;2023-02-04T11:44:15;2.73;;;2.53;;
3343;SDS011;1685;53.104;8.228;2023-02-04T11:46:47;6.20;;;2.80;;
3343;SDS011;1685;53.104;8.228;2023-02-04T11:49:15;4.83;;;3.37;;
3343;SDS011;1685;53.104;8.228;2023-02-04T11:51:44;4.87;;;3.23;;
3343;SDS011;1685;53.104;8.228;2023-02-04T11:54:11;4.67;;;2.80;;
3343;SDS011;1685;53.104;8.228;2023-02-04T11:56:40;2.50;;;2.30;;
3343;SDS011;1685;53.104;8.228;2023-02-04T11:59:09;2.37;;;2.27;;
3343;SDS011;1685;53.104;8.228;2023-02-04T12:01:38;2.73;;;2.53;;
3343;SDS011;1685;53.104;8.228;2023-02-04T12:04:06;4.07;;;2.90;;
3343;SDS011;1685;53.104;8.228;2023-02-04T12:06:55;2.73;;;2.53;;
3343;SDS011;1685;53.104;8.228;2023-02-04T12:09:24;4.40;;;3.17;;
3343;SDS011;1685;53.104;8.228;2023-02-04T12:11:52;3.17;;;2.97;;
3343;SDS011;1685;53.104;8.228;2023-02-04T12:14:21;2.50;;;2.40;;
3343;SDS011;1685;53.104;8.228;2023-02-04T12:16:52;5.03;;;3.10;;
3343;SDS011;1685;53.104;8.228;2023-02-04T12:19:20;4.07;;;3.30;;
3343;SDS011;1685;53.104;8.228;2023-02-04T12:21:47;3.57;;;3.27;;
3343;SDS011;1685;53.104;8.228;2023-02-04T12:24:14;3.33;;;3.13;;
3343;SDS011;1685;53.104;8.228;2023-02-04T12:26:41;2.87;;;2.67;;
3343;SDS011;1685;53.104;8.228;2023-02-04T12:29:08;2.80;;;2.60;;
3343;SDS011;1685;53.104;8.228;2023-02-04T12:31:36;3.30;;;3.00;;
3343;SDS011;1685;53.104;8.228;2023-02-04T12:34:03;2.83;;;2.63;;
3343;SDS011;1685;53.104;8.228;2023-02-04T12:36:30;4.20;;;2.60;;
3343;SDS011;1685;53.104;8.228;2023-02-04T12:38:57;3.73;;;3.13;;
3343;SDS011;1685;53.104;8.228;2023-02-04T12:41:24;2.53;;;2.43;;
3343;SDS011;1685;53.104;8.228;2023-02-04T12:43:51;3.30;;;2.90;;
3343;SDS011;1685;53.104;8.228;2023-02-04T12:46:19;3.17;;;2.87;;
3343;SDS011;1685;53.104;8.228;2023-02-04T12:48:47;3.43;;;2.70;;
3343;SDS011;1685;53.104;8.228;2023-02-04T12:51:14;2.60;;;2.40;;
3343;SDS011;1685;53.104;8.228;2023-02-04T12:53:41;3.00;;;2.80;;
3343;SDS011;1685;53.104;8.228;2023-02-04T12:56:08;2.80;;;2.60;;
3343;SDS011;1685;53.104;8.228;2023-02-04T12:58:35;2.63;;;2.50;;
3343;SDS011;1685;53.104;8.228;2023-02-04T13:01:02;2.57;;;2.37;;
3343;SDS011;1685;53.104;8.228;2023-02-04T13:03:29;2.23;;;2.13;;
3343;SDS011;1685;53.104;8.228;2023-02-04T13:05:57;4.00;;;2.67;;
3343;SDS011;1685;53.104;8.228;2023-02-04T13:08:24;3.10;;;2.80;;
3343;SDS011;1685;53.104;8.228;2023-02-04T13:10:50;4.77;;;2.87;;
3343;SDS011;1685;53.104;8.228;2023-02-04T13:13:17;2.50;;;2.30;;
3343;SDS011;1685;53.104;8.228;2023-02-04T13:15:45;3.60;;;3.17;;
3343;SDS011;1685;53.104;8.228;2023-02-04T13:18:12;3.30;;;3.00;;
3343;SDS011;1685;53.104;8.228;2023-02-04T13:20:39;2.80;;;2.43;;
3343;SDS011;1685;53.104;8.228;2023-02-04T13:23:07;3.03;;;2.73;;
3343;SDS011;1685;53.104;8.228;2023-02-04T13:25:34;4.30;;;3.40;;
3343;SDS011;1685;53.104;8.228;2023-02-04T13:28:01;2.73;;;2.50;;
3343;SDS011;1685;53.104;8.228;2023-02-04T13:30:27;2.87;;;2.67;;
3343;SDS011;1685;53.104;8.228;2023-02-04T13:32:54;5.43;;;3.30;;
3343;SDS011;1685;53.104;8.228;2023-02-04T13:35:21;6.00;;;2.70;;
3343;SDS011;1685;53.104;8.228;2023-02-04T13:37:49;3.23;;;2.90;;
3343;SDS011;1685;53.104;8.228;2023-02-04T13:40:18;4.03;;;2.50;;
3343;SDS011;1685;53.104;8.228;2023-02-04T13:42:44;2.47;;;2.37;;
3343;SDS011;1685;53.104;8.228;2023-02-04T13:45:11;2.93;;;2.63;;
3343;SDS011;1685;53.104;8.228;2023-02-04T13:47:40;3.63;;;2.77;;
3343;SDS011;1685;53.104;8.228;2023-02-04T13:50:06;2.63;;;2.43;;
3343;SDS011;1685;53.104;8.228;2023-02-04T13:52:34;3.07;;;2.77;;
3343;SDS011;1685;53.104;8.228;2023-02-04T13:55:00;2.17;;;2.03;;
3343;SDS011;1685;53.104;8.228;2023-02-04T13:57:28;2.53;;;2.43;;
3343;SDS011;1685;53.104;8.228;2023-02-04T13:59:56;2.87;;;2.70;;
3343;SDS011;1685;53.104;8.228;2023-02-04T14:02:23;2.80;;;2.60;;
3343;SDS011;1685;53.104;8.228;2023-02-04T14:04:50;2.80;;;2.60;;
3343;SDS011;1685;53.104;8.228;2023-02-04T14:07:16;3.63;;;2.53;;
3343;SDS011;1685;53.104;8.228;2023-02-04T14:09:44;2.13;;;2.03;;
3343;SDS011;1685;53.104;8.228;2023-02-04T14:12:12;2.10;;;2.00;;
3343;SDS011;1685;53.104;8.228;2023-02-04T14:14:40;2.70;;;2.50;;
3343;SDS011;1685;53.104;8.228;2023-02-04T14:17:07;2.53;;;2.33;;
3343;SDS011;1685;53.104;8.228;2023-02-04T14:19:33;2.30;;;2.20;;
3343;SDS011;1685;53.104;8.228;2023-02-04T14:22:00;2.33;;;2.23;;
3343;SDS011;1685;53.104;8.228;2023-02-04T14:24:27;2.07;;;1.97;;
3343;SDS011;1685;53.104;8.228;2023-02-04T14:26:54;2.30;;;2.13;;
3343;SDS011;1685;53.104;8.228;2023-02-04T14:29:21;2.30;;;2.20;;
3343;SDS011;1685;53.104;8.228;2023-02-04T14:31:49;2.07;;;1.90;;
3343;SDS011;1685;53.104;8.228;2023-02-04T14:34:16;2.67;;;2.50;;
3343;SDS011;1685;53.104;8.228;2023-02-04T14:36:43;2.20;;;2.10;;
3343;SDS011;1685;53.104;8.228;2023-02-04T14:39:09;2.80;;;2.60;;
3343;SDS011;1685;53.104;8.228;2023-02-04T14:41:36;2.63;;;2.33;;
3343;SDS011;1685;53.104;8.228;2023-02-04T14:44:03;2.33;;;2.20;;
3343;SDS011;1685;53.104;8.228;2023-02-04T14:46:30;2.13;;;2.03;;
3343;SDS011;1685;53.104;8.228;2023-02-04T14:48:58;1.97;;;1.87;;
3343;SDS011;1685;53.104;8.228;2023-02-04T14:51:25;3.20;;;2.93;;
3343;SDS011;1685;53.104;8.228;2023-02-04T14:53:51;3.43;;;3.23;;
3343;SDS011;1685;53.104;8.228;2023-02-04T14:56:18;1.80;;;1.70;;
3343;SDS011;1685;53.104;8.228;2023-02-04T14:58:45;3.57;;;2.27;;
3343;SDS011;1685;53.104;8.228;2023-02-04T15:01:11;3.47;;;2.60;;
3343;SDS011;1685;53.104;8.228;2023-02-04T15:03:38;3.27;;;2.47;;
3343;SDS011;1685;53.104;8.228;2023-02-04T15:06:07;3.63;;;2.63;;
3343;SDS011;1685;53.104;8.228;2023-02-04T15:08:34;2.50;;;2.30;;
3343;SDS011;1685;53.104;8.228;2023-02-04T15:11:01;3.30;;;3.03;;
3343;SDS011;1685;53.104;8.228;2023-02-04T15:13:28;5.37;;;2.93;;
3343;SDS011;1685;53.104;8.228;2023-02-04T15:15:54;5.43;;;3.77;;
3343;SDS011;1685;53.104;8.228;2023-02-04T15:18:21;3.67;;;2.97;;